createdAt,value
2022-08-23T00:02:26.752Z,19.90
2022-08-23T00:05:09.097Z,19.70
2022-08-23T00:07:41.287Z,19.60
2022-08-23T00:10:11.569Z,19.50
2022-08-23T00:12:40.730Z,19.40
2022-08-23T00:15:10.864Z,19.20
2022-08-23T00:17:42.286Z,19.10
2022-08-23T00:20:15.812Z,19.10
2022-08-23T00:22:48.409Z,18.90
2022-08-23T00:25:17.562Z,18.80
2022-08-23T00:27:46.636Z,18.70
2022-08-23T00:30:17.928Z,18.50
2022-08-23T00:32:47.277Z,18.30
2022-08-23T00:35:27.224Z,18.20
2022-08-23T00:38:14.625Z,18.40
2022-08-23T00:40:51.200Z,18.30
2022-08-23T00:43:41.921Z,18.20
2022-08-23T00:46:38.842Z,18.00
2022-08-23T00:49:12.148Z,18.00
2022-08-23T00:51:52.548Z,17.80
2022-08-23T00:54:25.462Z,17.80
2022-08-23T00:56:55.071Z,17.70
2022-08-23T00:59:24.364Z,17.70
2022-08-23T01:01:53.509Z,17.60
2022-08-23T01:04:22.442Z,17.60
2022-08-23T01:06:58.397Z,17.70
2022-08-23T01:09:28.616Z,17.80
2022-08-23T01:12:04.667Z,17.80
2022-08-23T01:14:37.378Z,17.80
2022-08-23T01:17:10.931Z,17.70
2022-08-23T01:19:43.731Z,17.50
2022-08-23T01:22:28.749Z,17.40
2022-08-23T01:25:07.227Z,17.30
2022-08-23T01:27:45.115Z,17.20
2022-08-23T01:30:21.291Z,17.10
2022-08-23T01:32:52.327Z,17.00
2022-08-23T01:37:51.929Z,16.90
2022-08-23T01:40:22.205Z,16.90
2022-08-23T01:42:50.743Z,16.90
2022-08-23T01:45:19.573Z,16.80
2022-08-23T01:47:48.205Z,16.80
2022-08-23T01:50:17.890Z,16.70
2022-08-23T01:52:46.850Z,16.60
2022-08-23T01:55:16.926Z,16.60
2022-08-23T01:57:50.307Z,16.50
2022-08-23T02:00:21.744Z,16.50
2022-08-23T02:02:50.328Z,16.40
2022-08-23T02:05:21.546Z,16.40
2022-08-23T02:07:50.506Z,16.20
2022-08-23T02:10:21.011Z,16.30
2022-08-23T02:12:54.630Z,16.20
2022-08-23T02:15:24.674Z,16.20
2022-08-23T02:17:56.012Z,16.20
2022-08-23T02:20:24.784Z,16.20
2022-08-23T02:22:53.239Z,16.20
2022-08-23T02:25:21.695Z,16.10
2022-08-23T02:27:56.651Z,16.10
2022-08-23T02:30:25.293Z,16.00
2022-08-23T02:32:54.075Z,15.90
2022-08-23T02:35:26.055Z,15.80
2022-08-23T02:37:54.563Z,15.80
2022-08-23T02:40:23.455Z,15.80
2022-08-23T02:42:52.314Z,15.80
2022-08-23T02:45:22.745Z,15.90
2022-08-23T02:47:51.597Z,15.80
2022-08-23T02:50:25.589Z,15.80
2022-08-23T02:52:55.047Z,15.80
2022-08-23T02:55:25.667Z,15.80
2022-08-23T02:57:54.332Z,15.70
2022-08-23T03:00:24.590Z,15.60
2022-08-23T03:02:53.879Z,15.60
2022-08-23T03:05:30.449Z,15.50
2022-08-23T03:07:59.476Z,15.50
2022-08-23T03:10:28.421Z,15.50
2022-08-23T03:13:03.778Z,15.50
2022-08-23T03:15:34.126Z,15.40
2022-08-23T03:18:03.002Z,15.40
2022-08-23T03:20:31.749Z,15.40
2022-08-23T03:23:00.260Z,15.30
2022-08-23T03:25:29.475Z,15.20
2022-08-23T03:28:08.617Z,15.20
2022-08-23T03:30:43.305Z,15.20
2022-08-23T03:33:12.495Z,15.10
2022-08-23T03:35:41.895Z,15.10
2022-08-23T03:38:14.020Z,15.20
2022-08-23T03:40:44.076Z,15.10
2022-08-23T03:43:14.850Z,15.10
2022-08-23T03:45:44.986Z,15.00
2022-08-23T03:48:14.443Z,14.90
2022-08-23T03:50:43.557Z,14.90
2022-08-23T03:53:13.202Z,14.90
2022-08-23T03:55:45.539Z,14.90
2022-08-23T03:58:18.039Z,14.80
2022-08-23T04:00:49.088Z,14.80
2022-08-23T04:03:17.761Z,14.70
2022-08-23T04:06:03.958Z,14.70
2022-08-23T04:08:34.044Z,14.80
2022-08-23T04:11:05.895Z,14.80
2022-08-23T04:13:36.356Z,14.70
2022-08-23T04:16:07.346Z,14.70
2022-08-23T04:18:36.706Z,14.60
2022-08-23T04:21:11.434Z,14.60
2022-08-23T04:23:40.807Z,14.60
2022-08-23T04:26:10.203Z,14.60
2022-08-23T04:28:40.137Z,14.60
2022-08-23T04:31:10.589Z,14.50
2022-08-23T04:33:45.498Z,14.50
2022-08-23T04:36:23.400Z,14.50
2022-08-23T04:38:53.617Z,14.50
2022-08-23T04:41:39.787Z,14.50
2022-08-23T04:44:08.441Z,14.50
2022-08-23T04:46:40.018Z,14.50
2022-08-23T04:49:08.868Z,14.70
2022-08-23T04:51:37.810Z,14.80
2022-08-23T04:54:07.991Z,14.90
2022-08-23T04:56:51.773Z,15.00
2022-08-23T04:59:23.164Z,14.90
2022-08-23T05:01:53.600Z,14.80
2022-08-23T05:04:22.744Z,14.90
2022-08-23T05:06:52.407Z,15.00
2022-08-23T05:09:25.346Z,15.00
2022-08-23T05:11:54.402Z,15.00
2022-08-23T05:14:25.103Z,15.10
2022-08-23T05:16:55.530Z,15.10
2022-08-23T05:19:25.549Z,15.10
2022-08-23T05:21:57.017Z,15.20
2022-08-23T05:24:38.449Z,15.50
2022-08-23T05:27:10.571Z,15.60
2022-08-23T05:29:41.940Z,15.80
2022-08-23T05:32:12.382Z,16.00
2022-08-23T05:34:40.976Z,16.20
2022-08-23T05:37:12.571Z,16.40
2022-08-23T05:39:42.733Z,16.50
2022-08-23T05:42:14.472Z,16.60
2022-08-23T05:44:44.375Z,16.70
2022-08-23T05:47:17.326Z,16.80
2022-08-23T05:50:00.945Z,16.90
2022-08-23T05:52:34.025Z,17.10
2022-08-23T05:55:02.844Z,17.40
2022-08-23T05:57:50.350Z,17.50
2022-08-23T06:00:19.379Z,17.60
2022-08-23T06:02:50.505Z,17.80
2022-08-23T06:05:21.245Z,17.90
2022-08-23T06:07:52.080Z,18.00
2022-08-23T06:10:23.408Z,18.20
2022-08-23T06:12:58.567Z,18.30
2022-08-23T06:15:27.191Z,18.50
2022-08-23T06:17:57.358Z,18.70
2022-08-23T06:20:26.511Z,19.00
2022-08-23T06:23:17.939Z,19.10
2022-08-23T06:25:46.595Z,19.30
2022-08-23T06:28:20.529Z,19.60
2022-08-23T06:30:56.415Z,19.70
2022-08-23T06:33:30.932Z,19.90
2022-08-23T06:36:18.672Z,20.00
2022-08-23T06:39:16.432Z,20.20
2022-08-23T06:42:22.157Z,20.50
2022-08-23T06:45:01.649Z,20.70
2022-08-23T06:47:43.648Z,20.90
2022-08-23T06:50:14.302Z,21.10
2022-08-23T06:53:07.286Z,21.20
2022-08-23T06:55:57.432Z,21.50
2022-08-23T06:58:36.251Z,21.80
2022-08-23T07:01:44.748Z,22.00
2022-08-23T07:04:24.633Z,22.10
2022-08-23T07:07:24.156Z,22.30
2022-08-23T07:10:07.397Z,22.50
2022-08-23T07:12:40.947Z,22.80
2022-08-23T07:15:16.596Z,22.90
2022-08-23T07:17:47.662Z,23.00
2022-08-23T07:20:16.853Z,23.10
2022-08-23T07:22:51.391Z,23.30
2022-08-23T07:25:20.178Z,23.50
2022-08-23T07:27:55.577Z,23.70
2022-08-23T07:30:24.453Z,23.90
2022-08-23T07:32:53.582Z,24.00
2022-08-23T07:35:28.637Z,24.10
2022-08-23T07:38:01.977Z,24.00
2022-08-23T07:40:39.150Z,23.80
2022-08-23T07:43:11.277Z,23.90
2022-08-23T07:45:43.389Z,24.20
2022-08-23T07:48:14.222Z,24.40
2022-08-23T07:51:12.617Z,24.30
2022-08-23T07:53:45.938Z,24.10
2022-08-23T07:56:18.897Z,23.90
2022-08-23T07:59:01.616Z,23.70
2022-08-23T08:01:42.859Z,23.70
2022-08-23T08:04:16.032Z,23.80
2022-08-23T08:07:04.844Z,23.70
2022-08-23T08:09:42.464Z,23.80
2022-08-23T08:12:11.384Z,23.90
2022-08-23T08:14:43.087Z,23.90
2022-08-23T08:17:17.156Z,24.00
2022-08-23T08:20:22.164Z,24.10
2022-08-23T08:22:51.190Z,24.30
2022-08-23T08:25:47.589Z,24.40
2022-08-23T08:28:19.939Z,24.60
2022-08-23T08:30:48.769Z,24.80
2022-08-23T08:33:17.815Z,24.90
2022-08-23T08:35:57.561Z,25.00
2022-08-23T08:38:30.727Z,25.10
2022-08-23T08:41:10.729Z,25.20
2022-08-23T08:43:54.394Z,25.20
2022-08-23T08:46:29.899Z,25.30
2022-08-23T08:49:05.090Z,25.30
2022-08-23T08:51:44.038Z,25.40
2022-08-23T08:54:23.541Z,25.50
2022-08-23T08:57:25.231Z,25.50
2022-08-23T09:00:38.054Z,25.70
2022-08-23T09:03:27.244Z,25.90
2022-08-23T09:06:26.099Z,25.90
2022-08-23T09:09:22.160Z,26.00
2022-08-23T09:12:00.748Z,26.10
2022-08-23T09:15:06.376Z,26.20
2022-08-23T09:17:47.526Z,26.30
2022-08-23T09:20:22.782Z,26.30
2022-08-23T09:23:11.824Z,26.40
2022-08-23T09:26:04.345Z,26.50
2022-08-23T09:28:50.651Z,26.60
2022-08-23T09:31:44.825Z,26.60
2022-08-23T09:34:40.171Z,26.70
2022-08-23T09:37:30.129Z,26.90
2022-08-23T09:40:35.259Z,27.10
2022-08-23T09:43:26.910Z,27.30
2022-08-23T09:46:09.615Z,27.50
2022-08-23T09:48:59.069Z,27.70
2022-08-23T09:51:50.642Z,28.10
2022-08-23T09:54:37.759Z,28.70
2022-08-23T09:57:22.621Z,29.50
2022-08-23T09:59:59.065Z,30.20
2022-08-23T10:02:54.892Z,30.90
2022-08-23T10:05:56.658Z,31.40
2022-08-23T10:08:43.428Z,31.90
2022-08-23T10:11:36.031Z,31.50
2022-08-23T10:14:23.464Z,31.70
2022-08-23T10:17:21.295Z,32.10
2022-08-23T10:20:16.228Z,32.20
2022-08-23T10:23:10.193Z,32.50
2022-08-23T10:26:10.366Z,32.70
2022-08-23T10:29:13.660Z,32.80
2022-08-23T10:32:02.997Z,33.20
2022-08-23T10:35:12.484Z,33.40
2022-08-23T10:38:16.599Z,33.00
2022-08-23T10:41:19.352Z,33.40
2022-08-23T10:44:40.563Z,33.80
2022-08-23T10:47:29.694Z,34.50
2022-08-23T10:50:07.505Z,35.10
2022-08-23T10:52:47.861Z,35.30
2022-08-23T10:55:38.977Z,35.60
2022-08-23T10:58:25.067Z,36.00
2022-08-23T11:00:58.823Z,35.60
2022-08-23T11:03:31.466Z,35.50
2022-08-23T11:06:30.721Z,34.80
2022-08-23T11:09:08.291Z,35.00
2022-08-23T11:11:49.739Z,35.30
2022-08-23T11:14:38.193Z,35.60
2022-08-23T11:17:27.415Z,35.80
2022-08-23T11:20:07.115Z,35.80
2022-08-23T11:23:17.741Z,36.10
2022-08-23T11:25:48.074Z,36.10
2022-08-23T11:28:42.904Z,36.60
2022-08-23T11:31:29.892Z,36.80
2022-08-23T11:34:08.252Z,37.20
2022-08-23T11:36:41.526Z,37.00
2022-08-23T11:39:19.644Z,37.20
2022-08-23T11:42:10.033Z,37.30
2022-08-23T11:44:52.775Z,37.10
2022-08-23T11:47:31.408Z,37.00
2022-08-23T11:50:20.069Z,37.50
2022-08-23T11:53:08.440Z,37.00
2022-08-23T11:56:04.574Z,36.90
2022-08-23T11:59:02.613Z,37.10
2022-08-23T12:01:47.416Z,37.40
2022-08-23T12:04:39.815Z,37.30
2022-08-23T12:07:13.726Z,37.10
2022-08-23T12:10:01.423Z,37.30
2022-08-23T12:12:40.065Z,37.90
2022-08-23T12:15:16.136Z,38.00
2022-08-23T12:21:18.556Z,37.40
2022-08-23T12:23:49.723Z,37.60
2022-08-23T12:26:29.240Z,37.70
2022-08-23T12:29:02.179Z,38.40
2022-08-23T12:31:39.669Z,37.60
2022-08-23T12:34:22.815Z,37.90
2022-08-23T12:37:03.805Z,38.00
2022-08-23T12:39:39.857Z,38.10
2022-08-23T12:42:15.976Z,38.30
2022-08-23T12:44:46.963Z,38.90
2022-08-23T12:47:18.822Z,39.30
2022-08-23T12:50:01.188Z,39.10
2022-08-23T12:52:32.986Z,39.20
2022-08-23T12:55:01.950Z,39.10
2022-08-23T12:57:47.249Z,38.30
2022-08-23T13:00:23.859Z,38.30
2022-08-23T13:03:01.218Z,39.10
2022-08-23T13:05:44.113Z,38.70
2022-08-23T13:08:16.890Z,39.40
2022-08-23T13:10:48.001Z,39.50
2022-08-23T13:13:21.296Z,39.90
2022-08-23T13:15:54.518Z,40.70
2022-08-23T13:18:29.569Z,41.20
2022-08-23T13:21:26.405Z,41.10
2022-08-23T13:24:00.931Z,41.60
2022-08-23T13:26:41.525Z,42.20
2022-08-23T13:29:13.820Z,41.70
2022-08-23T13:32:03.484Z,40.70
2022-08-23T13:34:36.558Z,40.50
2022-08-23T13:37:24.459Z,40.30
2022-08-23T13:40:00.579Z,39.90
2022-08-23T13:42:37.596Z,39.40
2022-08-23T13:45:14.205Z,38.80
2022-08-23T13:47:49.967Z,38.20
2022-08-23T13:50:24.704Z,38.40
2022-08-23T13:53:13.942Z,37.70
2022-08-23T13:55:47.489Z,37.40
2022-08-23T13:58:29.020Z,36.80
2022-08-23T14:00:59.020Z,37.30
2022-08-23T14:03:33.741Z,37.50
2022-08-23T14:06:02.693Z,38.70
2022-08-23T14:08:34.109Z,40.20
2022-08-23T14:11:05.165Z,41.10
2022-08-23T14:13:36.900Z,41.40
2022-08-23T14:21:47.537Z,38.30
2022-08-23T14:24:16.717Z,37.60
2022-08-23T14:26:50.162Z,37.80
2022-08-23T14:29:22.858Z,38.90
2022-08-23T14:31:52.283Z,39.70
2022-08-23T14:34:21.663Z,39.50
2022-08-23T14:39:43.216Z,40.70
2022-08-23T14:42:18.282Z,40.80
2022-08-23T14:44:47.116Z,41.20
2022-08-23T14:47:15.659Z,39.80
2022-08-23T14:49:44.284Z,39.60
2022-08-23T14:52:15.009Z,39.60
2022-08-23T14:54:44.044Z,40.00
2022-08-23T14:57:14.185Z,40.60
2022-08-23T14:59:42.726Z,40.10
2022-08-23T15:02:13.045Z,40.10
2022-08-23T15:04:42.549Z,41.10
2022-08-23T15:07:19.356Z,41.10
2022-08-23T15:09:48.798Z,41.40
2022-08-23T15:15:21.845Z,42.20
2022-08-23T15:17:53.825Z,42.10
2022-08-23T15:20:25.277Z,41.80
2022-08-23T15:23:05.366Z,41.20
2022-08-23T15:25:40.358Z,40.70
2022-08-23T15:28:13.304Z,39.90
2022-08-23T15:30:45.325Z,38.40
2022-08-23T15:33:23.395Z,38.80
2022-08-23T15:35:56.052Z,39.50
2022-08-23T15:38:36.149Z,40.00
2022-08-23T15:41:08.713Z,39.70
2022-08-23T15:43:44.490Z,39.90
2022-08-23T15:46:18.217Z,40.40
2022-08-23T15:48:50.816Z,41.60
2022-08-23T15:51:25.075Z,41.00
2022-08-23T15:54:02.122Z,41.40
2022-08-23T15:56:38.026Z,41.60
2022-08-23T15:59:13.115Z,42.00
2022-08-23T16:01:42.889Z,42.40
2022-08-23T16:04:12.836Z,42.60
2022-08-23T16:06:45.522Z,40.90
2022-08-23T16:09:19.924Z,40.30
2022-08-23T16:11:49.295Z,40.50
2022-08-23T16:14:21.912Z,41.00
2022-08-23T16:16:54.458Z,40.70
2022-08-23T16:19:23.537Z,39.90
2022-08-23T16:21:53.766Z,40.60
2022-08-23T16:24:24.674Z,41.10
2022-08-23T16:26:54.448Z,41.40
2022-08-23T16:29:27.889Z,40.70
2022-08-23T16:31:58.639Z,40.00
2022-08-23T16:34:33.331Z,40.50
2022-08-23T16:37:06.544Z,41.10
2022-08-23T16:39:40.649Z,41.00
2022-08-23T16:42:09.878Z,39.70
2022-08-23T16:44:45.169Z,39.50
2022-08-23T16:47:14.945Z,39.90
2022-08-23T16:49:47.811Z,39.90
2022-08-23T16:52:19.241Z,40.10
2022-08-23T16:54:53.494Z,40.10
2022-08-23T16:57:22.383Z,40.10
2022-08-23T16:59:52.664Z,39.90
2022-08-23T17:02:29.206Z,39.70
2022-08-23T17:04:58.895Z,40.00
2022-08-23T17:07:28.464Z,40.20
2022-08-23T17:09:57.755Z,40.20
2022-08-23T17:12:26.595Z,40.30
2022-08-23T17:14:57.476Z,39.80
2022-08-23T17:17:26.431Z,38.80
2022-08-23T17:19:55.557Z,37.80
2022-08-23T17:22:26.626Z,36.50
2022-08-23T17:24:55.848Z,35.60
2022-08-23T17:27:25.413Z,34.80
2022-08-23T17:29:56.559Z,33.80
2022-08-23T17:32:28.260Z,33.30
2022-08-23T17:35:00.417Z,32.80
2022-08-23T17:37:29.165Z,32.60
2022-08-23T17:40:01.474Z,32.40
2022-08-23T17:42:33.406Z,32.10
2022-08-23T17:45:05.066Z,31.80
2022-08-23T17:47:36.566Z,31.60
2022-08-23T17:50:09.672Z,31.40
2022-08-23T17:52:38.912Z,31.20
2022-08-23T17:55:10.622Z,31.10
2022-08-23T17:57:40.013Z,30.90
2022-08-23T18:00:15.918Z,30.80
2022-08-23T18:02:46.876Z,30.60
2022-08-23T18:05:16.050Z,30.40
2022-08-23T18:07:47.721Z,30.30
2022-08-23T18:10:16.542Z,30.10
2022-08-23T18:12:45.660Z,30.00
2022-08-23T18:15:15.704Z,29.80
2022-08-23T18:17:45.142Z,29.60
2022-08-23T18:20:14.813Z,29.30
2022-08-23T18:22:43.619Z,29.20
2022-08-23T18:25:14.323Z,29.10
2022-08-23T18:27:59.887Z,29.00
2022-08-23T18:30:30.408Z,28.80
2022-08-23T18:32:59.260Z,28.60
2022-08-23T18:35:30.682Z,28.40
2022-08-23T18:37:59.689Z,28.10
2022-08-23T18:40:30.237Z,27.90
2022-08-23T18:42:59.089Z,27.70
2022-08-23T18:45:30.634Z,27.40
2022-08-23T18:47:59.270Z,27.30
2022-08-23T18:50:28.272Z,27.00
2022-08-23T18:52:57.066Z,26.70
2022-08-23T18:55:25.848Z,26.50
2022-08-23T18:57:55.087Z,26.30
2022-08-23T19:00:23.827Z,26.10
2022-08-23T19:02:54.203Z,25.90
2022-08-23T19:05:23.071Z,25.90
2022-08-23T19:07:51.649Z,26.10
2022-08-23T19:10:20.717Z,26.30
2022-08-23T19:12:54.246Z,26.40
2022-08-23T19:15:24.968Z,26.30
2022-08-23T19:17:55.274Z,26.10
2022-08-23T19:20:25.355Z,25.90
2022-08-23T19:22:55.185Z,25.80
2022-08-23T19:25:24.274Z,25.60
2022-08-23T19:27:53.213Z,25.40
2022-08-23T19:30:22.864Z,25.30
2022-08-23T19:32:51.543Z,25.10
2022-08-23T19:35:22.965Z,24.90
2022-08-23T19:37:51.618Z,24.80
2022-08-23T19:40:20.773Z,24.70
2022-08-23T19:42:49.309Z,24.50
2022-08-23T19:45:20.144Z,24.30
2022-08-23T19:47:49.137Z,24.20
2022-08-23T19:50:24.055Z,24.10
2022-08-23T19:52:53.247Z,24.00
2022-08-23T19:55:22.014Z,23.90
2022-08-23T19:57:54.841Z,23.80
2022-08-23T20:00:24.052Z,23.60
2022-08-23T20:02:53.259Z,23.40
2022-08-23T20:05:24.178Z,23.40
2022-08-23T20:07:53.018Z,23.30
2022-08-23T20:10:22.278Z,23.10
2022-08-23T20:12:51.186Z,23.10
2022-08-23T20:15:20.339Z,22.90
2022-08-23T20:17:49.098Z,22.70
2022-08-23T20:20:18.188Z,22.70
2022-08-23T20:23:06.675Z,22.50
2022-08-23T20:25:36.765Z,22.40
2022-08-23T20:28:08.344Z,22.40
2022-08-23T20:30:37.668Z,22.40
2022-08-23T20:33:06.375Z,22.30
2022-08-23T20:35:34.987Z,22.30
2022-08-23T20:38:06.153Z,22.20
2022-08-23T20:40:34.834Z,22.20
2022-08-23T20:43:03.585Z,22.10
2022-08-23T20:45:33.423Z,22.20
2022-08-23T20:48:02.157Z,22.10
2022-08-23T20:50:31.185Z,22.00
2022-08-23T20:52:59.690Z,21.80
2022-08-23T20:55:29.912Z,21.80
2022-08-23T20:57:58.548Z,21.80
2022-08-23T21:00:27.350Z,21.70
2022-08-23T21:02:56.124Z,21.60
2022-08-23T21:05:32.322Z,21.40
2022-08-23T21:08:01.282Z,21.30
2022-08-23T21:10:33.407Z,21.30
2022-08-23T21:13:05.153Z,21.50
2022-08-23T21:15:39.191Z,21.30
2022-08-23T21:18:08.044Z,21.10
2022-08-23T21:20:36.366Z,21.20
2022-08-23T21:23:04.856Z,21.00
2022-08-23T21:25:34.921Z,20.90
2022-08-23T21:28:04.491Z,20.90
2022-08-23T21:30:33.375Z,20.80
2022-08-23T21:33:01.945Z,20.90
2022-08-23T21:35:30.621Z,20.80
2022-08-23T21:37:59.114Z,20.60
2022-08-23T21:40:27.700Z,20.60
2022-08-23T21:42:58.022Z,20.50
2022-08-23T21:45:26.685Z,20.40
2022-08-23T21:47:55.705Z,20.40
2022-08-23T21:50:24.643Z,20.60
2022-08-23T21:52:56.928Z,20.40
2022-08-23T21:55:35.266Z,20.30
2022-08-23T21:58:07.144Z,20.30
2022-08-23T22:00:36.662Z,20.50
2022-08-23T22:03:06.177Z,20.40
2022-08-23T22:05:34.958Z,20.40
2022-08-23T22:08:03.642Z,20.30
2022-08-23T22:10:32.210Z,20.10
2022-08-23T22:13:00.805Z,20.10
2022-08-23T22:15:32.500Z,20.20
2022-08-23T22:18:01.572Z,20.00
2022-08-23T22:20:31.552Z,19.90
2022-08-23T22:23:00.336Z,19.90
2022-08-23T22:25:29.879Z,19.80
2022-08-23T22:27:58.496Z,19.80
2022-08-23T22:30:27.137Z,19.90
2022-08-23T22:32:57.399Z,19.90
2022-08-23T22:35:26.160Z,19.90
2022-08-23T22:38:12.722Z,19.70
2022-08-23T22:40:49.003Z,19.60
2022-08-23T22:43:17.890Z,19.60
2022-08-23T22:45:53.953Z,19.40
2022-08-23T22:48:24.518Z,19.40
2022-08-23T22:51:03.856Z,19.30
2022-08-23T22:53:32.451Z,19.30
2022-08-23T22:56:00.980Z,19.20
2022-08-23T22:58:29.421Z,19.30
2022-08-23T23:00:58.117Z,19.30
2022-08-23T23:03:28.418Z,19.20
2022-08-23T23:05:57.261Z,19.10
2022-08-23T23:08:28.297Z,19.20
2022-08-23T23:10:58.622Z,19.10
2022-08-23T23:13:29.470Z,19.10
2022-08-23T23:15:58.565Z,19.10
2022-08-23T23:18:28.559Z,19.00
2022-08-23T23:21:00.518Z,19.00
2022-08-23T23:23:30.282Z,19.00
2022-08-23T23:26:00.396Z,18.90
2022-08-23T23:28:29.224Z,19.00
2022-08-23T23:30:59.667Z,19.10
2022-08-23T23:33:29.955Z,19.00
2022-08-23T23:35:58.692Z,19.00
2022-08-23T23:38:26.979Z,18.90
2022-08-23T23:40:55.496Z,18.90
2022-08-23T23:43:23.945Z,19.00
2022-08-23T23:45:52.450Z,18.90
2022-08-23T23:48:21.337Z,18.80
2022-08-23T23:50:51.413Z,18.80
2022-08-23T23:53:20.422Z,18.70
2022-08-23T23:55:49.040Z,18.70
2022-08-23T23:58:17.494Z,18.80
